17°C Temp
13°C Dewpoint
77% Humidity
Temperature
3 KM/H
2 MPH
2 KTS
Calm
Due North

Wind Speed
Clear
Conditions
Pressure 1028.92 (hPa) - 30.38 (in)
Visibility 4.3 (mi) - 7.0 (km)

Current Conditions
LEJR
Location 25(km)
Metar :LEJR 161100Z VRB02KT 7000 NSC 17/13 Q1029
Sun 16th February 13:00 pm

Airport
  Metar Aviation API Data Provided by https://www.checkwx.com/ PHP scripts by weather34.com ©2020